Skip Navigation LinksHome page > Weather > Current weather Skip Navigation Links

Current Weather

Porter County Muni, Valparaiso, Ind.

For information only: do not use for flight planning or navigation.
Latest weather
Observation time Friday, April 3, 2020 11:56 AM CDT
Local time Friday, April 3, 2020 12:09 PM CDT
Flight conditions Visual Meteorological Conditions
Winds
Wind direction South (170°)
Wind speed 8 mph
Visibility 10 mi.
Sky condition
Ceiling unlimited
Cloud layer few clouds 8,000 ft.
Temperature 65°F
Dewpoint 40°F
Altimeter 30.08 in.Hg
Derived measurements
Relative humidity 40%
Density altitude 1102 ft.
Sea-level pressure 30.08 in.Hg
Remarks
Fully automated report.
Automated weather observing station with precipitation discriminator.
METAR KVPZ 031656Z AUTO 17007KT 10SM FEW080 18/04 A3008 RMK AO2 SLP187 T01830044

Settings

Location code

InnerDrive.Weather 4.0.6770.0 Release CLR 4.0.30319.42000
Copyright ©2018 Inner Drive Technology. All rights reserved. Portions Copyright ©1986-2018 David Braverman.

Find weather

Site navigation


Skip Navigation Links

Place info

Page info

PayPal - The safer, easier way to pay online!

Return home.

Copyright ©2020 Inner Drive Technology. Purveyors of fine, hand-crafted computer software. Page printed 2020-04-03T17:09:28 UTC.